Anmoore, West Virginia
Current Conditions -  °F | °C
As of 9:53 PM on Monday 22 Dec 2014 (Local Time) from KCKB Reporting Station
Overcast Overcast  
Wind Chill:   Ceiling: 10000
Heat Index:   Visibility: 10mi
Dew Point:   Wind: 6mph
Humidity: 79%   Direction: 70°ENE
Pressure: 29.9"   Gusts: NA
Location:  39.26°N, 80.29°W
Report Text: KCKB 230253Z 07005KT 10SM OVC100 06/02 A2990 RMK AO2 SLP126 T00560022 58011
Loading
Personal Weather Stations






























Interactive Weather Map New forecast layout! Learn more

10-Day Weather Forecast

Advertisements
Track Severe Weather on mobile